createdAt,value
2022-11-12T00:04:18.424Z,3.55
2022-11-12T00:09:40.895Z,4.32
2022-11-12T00:15:02.062Z,4.85
2022-11-12T00:20:23.117Z,3.35
2022-11-12T00:25:45.446Z,2.95
2022-11-12T00:31:11.443Z,3.08
2022-11-12T00:36:32.906Z,2.47
2022-11-12T00:41:55.604Z,3.03
2022-11-12T00:47:17.443Z,3.60
2022-11-12T00:52:38.931Z,2.72
2022-11-12T00:58:01.431Z,2.58
2022-11-12T01:03:22.735Z,4.05
2022-11-12T01:08:44.734Z,2.35
2022-11-12T01:14:09.084Z,2.60
2022-11-12T01:19:30.255Z,3.05
2022-11-12T01:24:51.314Z,2.75
2022-11-12T01:30:14.268Z,2.05
2022-11-12T01:35:35.387Z,2.22
2022-11-12T01:40:56.425Z,3.05
2022-11-12T01:46:21.953Z,3.67
2022-11-12T01:51:45.715Z,2.58
2022-11-12T01:57:08.112Z,3.03
2022-11-12T02:02:31.305Z,1.90
2022-11-12T02:07:53.637Z,3.33
2022-11-12T02:13:32.477Z,2.05
2022-11-12T02:18:55.415Z,2.58
2022-11-12T02:24:35.094Z,2.50
2022-11-12T02:29:56.528Z,2.30
2022-11-12T02:35:17.676Z,2.47
2022-11-12T02:40:40.116Z,2.72
2022-11-12T02:46:01.520Z,3.17
2022-11-12T02:51:22.656Z,3.53
2022-11-12T02:56:45.241Z,2.83
2022-11-12T03:02:06.435Z,2.85
2022-11-12T03:07:27.465Z,2.60
2022-11-12T03:12:49.967Z,2.85
2022-11-12T03:18:10.947Z,3.10
2022-11-12T03:23:32.201Z,3.65
2022-11-12T03:28:54.627Z,2.65
2022-11-12T03:34:15.957Z,3.67
2022-11-12T03:39:37.207Z,3.47
2022-11-12T03:44:59.798Z,3.55
2022-11-12T03:50:22.592Z,3.35
2022-11-12T03:55:43.639Z,3.63
2022-11-12T04:01:06.062Z,3.60
2022-11-12T04:06:44.562Z,3.00
2022-11-12T04:12:19.916Z,3.50
2022-11-12T04:18:00.170Z,3.00
2022-11-12T04:23:21.597Z,3.70
2022-11-12T04:29:02.947Z,3.00
2022-11-12T04:34:31.203Z,2.70
2022-11-12T04:39:52.400Z,3.50
2022-11-12T04:45:13.663Z,3.10
2022-11-12T04:50:36.356Z,3.20
2022-11-12T04:55:59.497Z,2.60
2022-11-12T05:01:20.937Z,3.50
2022-11-12T05:06:55.263Z,3.92
2022-11-12T05:12:16.275Z,3.45
2022-11-12T05:17:37.622Z,2.92
2022-11-12T05:23:06.887Z,2.88
2022-11-12T05:28:29.019Z,2.90
2022-11-12T05:33:50.421Z,3.22
2022-11-12T05:39:12.960Z,2.67
2022-11-12T05:44:34.200Z,3.10
2022-11-12T05:49:55.436Z,2.55
2022-11-12T05:55:18.160Z,3.47
2022-11-12T06:00:39.870Z,3.10
2022-11-12T06:06:01.335Z,3.67
2022-11-12T06:11:24.046Z,2.90
2022-11-12T06:16:45.426Z,3.25
2022-11-12T06:22:06.475Z,3.38
2022-11-12T06:27:28.854Z,2.70
2022-11-12T06:32:50.538Z,2.75
2022-11-12T06:38:11.560Z,3.13
2022-11-12T06:43:34.737Z,2.85
2022-11-12T06:48:55.872Z,3.28
2022-11-12T06:54:16.915Z,3.42
2022-11-12T06:59:39.174Z,2.65
2022-11-12T07:05:00.323Z,2.53
2022-11-12T07:10:21.457Z,3.25
2022-11-12T07:15:44.070Z,4.28
2022-11-12T07:21:07.751Z,3.08
2022-11-12T07:26:29.146Z,3.58
2022-11-12T07:31:51.604Z,2.50
2022-11-12T07:37:12.699Z,2.67
2022-11-12T07:42:34.599Z,2.70
2022-11-12T07:47:59.795Z,3.17
2022-11-12T07:53:21.290Z,3.40
2022-11-12T07:58:42.699Z,2.55
2022-11-12T08:04:07.778Z,2.45
2022-11-12T08:09:29.066Z,2.45
2022-11-12T08:14:50.185Z,2.25
2022-11-12T08:20:13.965Z,3.55
2022-11-12T08:25:35.697Z,2.30
2022-11-12T08:30:57.524Z,2.60
2022-11-12T08:36:20.048Z,2.33
2022-11-12T08:41:41.253Z,2.17
2022-11-12T08:47:02.636Z,2.03
2022-11-12T08:52:25.341Z,2.55
2022-11-12T08:57:46.618Z,2.35
2022-11-12T09:03:09.351Z,1.98
2022-11-12T09:08:35.047Z,2.13
2022-11-12T09:13:56.415Z,2.15
2022-11-12T09:19:17.531Z,2.50
2022-11-12T09:24:40.596Z,1.90
2022-11-12T09:30:01.882Z,2.17
2022-11-12T09:35:22.925Z,2.67
2022-11-12T09:40:57.288Z,2.15
2022-11-12T09:46:36.114Z,3.30
2022-11-12T09:52:02.582Z,3.17
2022-11-12T09:57:25.096Z,2.00
2022-11-12T10:02:52.313Z,2.22
2022-11-12T10:08:28.548Z,2.40
2022-11-12T10:14:00.810Z,2.17
2022-11-12T10:19:35.637Z,2.45
2022-11-12T10:24:57.717Z,2.17
2022-11-12T10:30:22.380Z,2.00
2022-11-12T10:35:43.581Z,2.00
2022-11-12T10:41:20.279Z,2.58
2022-11-12T10:46:42.932Z,2.30
2022-11-12T10:52:04.136Z,3.00
2022-11-12T10:57:26.709Z,3.20
2022-11-12T11:02:51.911Z,2.80
2022-11-12T11:08:13.326Z,2.90
2022-11-12T11:13:34.403Z,4.60
2022-11-12T11:19:00.331Z,1.70
2022-11-12T11:24:32.282Z,2.15
2022-11-12T11:30:05.006Z,2.08
2022-11-12T11:35:32.149Z,2.95
2022-11-12T11:41:01.963Z,1.98
2022-11-12T11:46:33.795Z,1.98
2022-11-12T11:52:02.070Z,3.90
2022-11-12T11:57:26.172Z,2.30
2022-11-12T12:03:04.956Z,3.00
2022-11-12T12:08:37.741Z,2.50
2022-11-12T12:14:17.464Z,4.40
2022-11-12T12:19:51.791Z,1.73
2022-11-12T12:25:17.718Z,2.88
2022-11-12T12:30:42.537Z,2.60
2022-11-12T12:36:07.282Z,2.50
2022-11-12T12:41:33.148Z,2.85
2022-11-12T12:46:57.541Z,2.15
2022-11-12T12:52:18.610Z,2.53
2022-11-12T12:57:41.332Z,2.47
2022-11-12T13:03:02.320Z,2.67
2022-11-12T13:08:26.521Z,4.18
2022-11-12T13:13:49.480Z,3.03
2022-11-12T13:19:10.589Z,2.20
2022-11-12T13:25:03.995Z,28.02
2022-11-12T13:30:58.273Z,225.48
2022-11-12T13:36:28.158Z,206.32
2022-11-12T13:42:14.876Z,253.52
2022-11-12T13:47:38.385Z,262.60
2022-11-12T13:53:01.257Z,292.42
2022-11-12T13:58:29.371Z,282.80
2022-11-12T14:03:52.859Z,308.33
2022-11-12T14:09:25.156Z,323.98
2022-11-12T14:15:09.162Z,290.98
2022-11-12T14:20:36.214Z,318.05
2022-11-12T14:25:58.996Z,295.65
2022-11-12T14:31:25.127Z,304.55
2022-11-12T14:36:47.376Z,279.67
2022-11-12T14:42:16.244Z,268.70
2022-11-12T14:47:37.446Z,256.70
2022-11-12T14:53:02.663Z,172.00
2022-11-12T14:58:27.006Z,242.35
2022-11-12T15:03:48.152Z,182.27
2022-11-12T15:09:09.298Z,183.48
2022-11-12T15:14:31.798Z,116.15
2022-11-12T15:19:53.193Z,113.97
2022-11-12T15:25:21.347Z,110.90
2022-11-12T15:31:01.096Z,188.50
2022-11-12T15:36:23.358Z,200.48
2022-11-12T15:41:44.834Z,207.23
2022-11-12T15:47:09.723Z,202.45
2022-11-12T15:52:32.457Z,200.73
2022-11-12T15:57:54.201Z,165.32
2022-11-12T16:03:18.355Z,173.02
2022-11-12T16:08:39.593Z,165.88
2022-11-12T16:14:00.978Z,173.32
2022-11-12T16:19:23.491Z,144.75
2022-11-12T16:24:44.746Z,149.45
2022-11-12T16:30:07.649Z,142.95
2022-11-12T16:35:34.192Z,133.40
2022-11-12T16:40:56.543Z,132.63
2022-11-12T16:46:26.075Z,113.43
2022-11-12T16:51:48.898Z,111.57
2022-11-12T16:57:10.267Z,122.10
2022-11-12T17:02:31.314Z,97.70
2022-11-12T17:07:56.764Z,103.38
2022-11-12T17:13:17.739Z,96.57
2022-11-12T17:18:39.070Z,99.20
2022-11-12T17:24:01.702Z,91.57
2022-11-12T17:29:22.804Z,93.65
2022-11-12T17:34:43.990Z,85.93
2022-11-12T17:40:08.024Z,81.05
2022-11-12T17:45:29.141Z,74.80
2022-11-12T17:50:50.717Z,72.93
2022-11-12T17:56:16.020Z,66.25
2022-11-12T18:01:37.841Z,75.38
2022-11-12T18:06:59.387Z,66.57
2022-11-12T18:12:21.778Z,63.25
2022-11-12T18:17:42.934Z,60.75
2022-11-12T18:23:04.058Z,53.15
2022-11-12T18:28:26.556Z,56.50
2022-11-12T18:33:47.933Z,56.13
2022-11-12T18:39:09.038Z,50.75
2022-11-12T18:44:31.505Z,43.10
2022-11-12T18:49:52.454Z,44.55
2022-11-12T18:55:13.645Z,49.35
2022-11-12T19:00:36.073Z,51.45
2022-11-12T19:05:58.979Z,39.13
2022-11-12T19:11:21.700Z,40.72
2022-11-12T19:16:44.751Z,41.13
2022-11-12T19:22:05.760Z,39.63
2022-11-12T19:27:26.866Z,37.30
2022-11-12T19:32:49.382Z,30.85
2022-11-12T19:38:10.759Z,37.10
2022-11-12T19:43:31.891Z,35.85
2022-11-12T19:48:54.826Z,37.65
2022-11-12T19:54:15.888Z,32.50
2022-11-12T19:59:37.017Z,28.63
2022-11-12T20:04:59.506Z,26.80
2022-11-12T20:10:20.551Z,24.10
2022-11-12T20:15:41.638Z,25.45
2022-11-12T20:21:05.419Z,24.48
2022-11-12T20:26:26.983Z,23.75
2022-11-12T20:31:48.036Z,25.60
2022-11-12T20:37:10.613Z,21.48
2022-11-12T20:42:31.695Z,25.17
2022-11-12T20:47:52.709Z,23.50
2022-11-12T20:53:15.265Z,22.25
2022-11-12T20:58:36.478Z,21.63
2022-11-12T21:03:58.378Z,22.17
2022-11-12T21:09:21.079Z,19.70
2022-11-12T21:14:46.081Z,23.15
2022-11-12T21:20:11.766Z,19.40
2022-11-12T21:25:37.124Z,20.42
2022-11-12T21:31:03.395Z,20.50
2022-11-12T21:36:25.018Z,17.23
2022-11-12T21:41:47.696Z,16.17
2022-11-12T21:47:08.774Z,19.15
2022-11-12T21:52:29.938Z,17.58
2022-11-12T21:57:52.500Z,15.68
2022-11-12T22:03:13.740Z,15.65
2022-11-12T22:08:34.831Z,15.13
2022-11-12T22:13:57.456Z,14.57
2022-11-12T22:19:19.419Z,14.63
2022-11-12T22:24:40.525Z,15.32
2022-11-12T22:30:02.942Z,14.85
2022-11-12T22:35:24.052Z,12.27
2022-11-12T22:40:45.174Z,14.52
2022-11-12T22:46:10.288Z,17.33
2022-11-12T22:51:32.944Z,15.05
2022-11-12T22:56:54.355Z,12.02
2022-11-12T23:02:16.638Z,13.82
2022-11-12T23:07:37.817Z,12.73
2022-11-12T23:12:59.081Z,10.15
2022-11-12T23:18:21.721Z,11.80
2022-11-12T23:23:42.862Z,10.55
2022-11-12T23:29:03.980Z,10.50
2022-11-12T23:34:26.358Z,8.45
2022-11-12T23:39:47.643Z,10.77
2022-11-12T23:45:10.113Z,8.70
2022-11-12T23:50:32.903Z,12.75
2022-11-12T23:55:54.106Z,11.70
